createdAt,value
2019-02-11T00:00:01.821Z,29.57
2019-02-11T00:02:30.101Z,29.77
2019-02-11T00:04:58.367Z,36.25
2019-02-11T00:07:26.602Z,31.93
2019-02-11T00:09:54.869Z,27.37
2019-02-11T00:12:23.131Z,29.70
2019-02-11T00:14:51.405Z,30.45
2019-02-11T00:17:19.659Z,28.25
2019-02-11T00:19:50.447Z,35.13
2019-02-11T00:22:18.759Z,33.90
2019-02-11T00:24:47.079Z,32.48
2019-02-11T00:27:15.663Z,35.52
2019-02-11T00:29:43.940Z,25.95
2019-02-11T00:32:13.807Z,31.93
2019-02-11T00:34:42.071Z,24.30
2019-02-11T00:37:10.342Z,30.82
2019-02-11T00:39:38.596Z,33.48
2019-02-11T00:42:06.841Z,32.33
2019-02-11T00:44:35.123Z,31.27
2019-02-11T00:47:03.394Z,28.52
2019-02-11T00:49:31.645Z,26.33
2019-02-11T00:51:59.917Z,30.45
2019-02-11T00:54:28.164Z,16.45
2019-02-11T00:56:56.429Z,26.82
2019-02-11T00:59:24.692Z,22.13
2019-02-11T01:01:52.956Z,26.80
2019-02-11T01:04:21.202Z,23.70
2019-02-11T01:06:49.490Z,22.80
2019-02-11T01:09:17.724Z,21.42
2019-02-11T01:11:45.992Z,21.05
2019-02-11T01:14:14.250Z,21.00
2019-02-11T01:16:42.503Z,21.93
2019-02-11T01:19:10.744Z,22.62
2019-02-11T01:21:39.025Z,17.27
2019-02-11T01:24:07.276Z,16.65
2019-02-11T01:26:35.549Z,16.10
2019-02-11T01:29:03.804Z,22.20
2019-02-11T01:31:32.153Z,21.15
2019-02-11T01:34:00.412Z,20.45
2019-02-11T01:36:28.658Z,29.45
2019-02-11T01:38:56.918Z,20.12
2019-02-11T01:41:25.210Z,19.45
2019-02-11T01:43:53.482Z,11.95
2019-02-11T01:46:21.726Z,20.32
2019-02-11T01:48:49.992Z,19.62
2019-02-11T01:51:18.251Z,18.25
2019-02-11T01:53:46.521Z,17.77
2019-02-11T01:56:14.754Z,21.80
2019-02-11T01:58:43.006Z,12.73
2019-02-11T02:01:11.273Z,16.30
2019-02-11T02:03:39.528Z,13.28
2019-02-11T02:06:07.806Z,19.85
2019-02-11T02:08:36.073Z,16.30
2019-02-11T02:11:04.312Z,15.48
2019-02-11T02:13:32.577Z,14.40
2019-02-11T02:16:00.826Z,23.38
2019-02-11T02:18:29.082Z,18.82
2019-02-11T02:20:57.332Z,18.50
2019-02-11T02:23:25.576Z,22.75
2019-02-11T02:25:53.844Z,20.40
2019-02-11T02:28:22.095Z,21.17
2019-02-11T02:30:50.362Z,17.42
2019-02-11T02:33:18.604Z,18.02
2019-02-11T02:35:46.863Z,20.02
2019-02-11T02:38:15.476Z,17.62
2019-02-11T02:40:43.732Z,20.88
2019-02-11T02:43:12.004Z,17.27
2019-02-11T02:45:40.284Z,17.60
2019-02-11T02:48:08.526Z,20.88
2019-02-11T02:50:36.802Z,22.42
2019-02-11T02:53:05.035Z,22.30
2019-02-11T02:55:34.876Z,19.73
2019-02-11T02:58:03.426Z,19.75
2019-02-11T03:00:31.683Z,23.50
2019-02-11T03:02:59.967Z,21.25
2019-02-11T03:05:28.257Z,20.82
2019-02-11T03:07:56.512Z,17.05
2019-02-11T03:10:24.776Z,21.40
2019-02-11T03:12:53.096Z,26.55
2019-02-11T03:15:21.347Z,23.75
2019-02-11T03:17:49.595Z,22.95
2019-02-11T03:20:17.830Z,24.63
2019-02-11T03:22:46.089Z,26.60
2019-02-11T03:25:14.339Z,23.05
2019-02-11T03:27:42.605Z,22.98
2019-02-11T03:30:10.932Z,28.15
2019-02-11T03:32:39.183Z,23.87
2019-02-11T03:35:07.612Z,31.87
2019-02-11T03:37:35.859Z,27.60
2019-02-11T03:40:06.357Z,25.27
2019-02-11T03:42:34.642Z,23.52
2019-02-11T03:45:03.077Z,21.40
2019-02-11T03:47:31.368Z,24.00
2019-02-11T03:49:59.621Z,29.10
2019-02-11T03:52:27.883Z,24.05
2019-02-11T03:54:56.141Z,23.18
2019-02-11T03:57:24.405Z,24.95
2019-02-11T03:59:52.667Z,22.58
2019-02-11T04:02:20.963Z,26.82
2019-02-11T04:04:49.241Z,26.62
2019-02-11T04:07:17.517Z,24.50
2019-02-11T04:09:45.753Z,24.87
2019-02-11T04:12:14.001Z,23.98
2019-02-11T04:14:42.257Z,22.85
2019-02-11T04:17:10.509Z,27.98
2019-02-11T04:19:38.781Z,25.40
2019-02-11T04:22:07.801Z,24.12
2019-02-11T04:24:36.062Z,21.40
2019-02-11T04:27:04.320Z,22.37
2019-02-11T04:29:32.601Z,19.70
2019-02-11T04:32:00.815Z,17.45
2019-02-11T04:34:29.104Z,17.77
2019-02-11T04:36:57.358Z,23.95
2019-02-11T04:39:25.627Z,25.25
2019-02-11T04:41:53.864Z,20.27
2019-02-11T04:44:22.139Z,29.92
2019-02-11T04:46:50.391Z,22.05
2019-02-11T04:49:18.687Z,23.92
2019-02-11T04:51:46.947Z,26.42
2019-02-11T04:54:15.280Z,28.25
2019-02-11T04:56:43.535Z,24.10
2019-02-11T04:59:11.822Z,20.45
2019-02-11T05:01:40.077Z,24.52
2019-02-11T05:04:08.348Z,23.02
2019-02-11T05:06:36.621Z,23.30
2019-02-11T05:09:07.555Z,25.82
2019-02-11T05:11:35.811Z,24.60
2019-02-11T05:14:04.065Z,25.62
2019-02-11T05:16:32.333Z,27.17
2019-02-11T05:19:00.597Z,23.65
2019-02-11T05:21:28.863Z,28.60
2019-02-11T05:23:57.127Z,27.45
2019-02-11T05:26:25.410Z,27.10
2019-02-11T05:28:53.667Z,26.35
2019-02-11T05:31:21.939Z,24.10
2019-02-11T05:33:50.196Z,20.10
2019-02-11T05:36:18.472Z,23.05
2019-02-11T05:38:46.706Z,27.95
2019-02-11T05:41:14.966Z,27.27
2019-02-11T05:43:43.239Z,21.97
2019-02-11T05:46:11.506Z,24.60
2019-02-11T05:48:39.758Z,27.48
2019-02-11T05:51:08.031Z,31.95
2019-02-11T05:53:36.286Z,24.82
2019-02-11T05:56:04.552Z,25.62
2019-02-11T05:58:32.798Z,24.82
2019-02-11T06:01:01.088Z,27.48
2019-02-11T06:03:29.349Z,28.80
2019-02-11T06:05:57.596Z,22.87
2019-02-11T06:08:28.710Z,29.65
2019-02-11T06:10:56.984Z,21.33
2019-02-11T06:13:25.208Z,21.35
2019-02-11T06:15:53.461Z,27.25
2019-02-11T06:18:21.743Z,32.23
2019-02-11T06:20:51.872Z,29.92
2019-02-11T06:23:27.173Z,25.88
2019-02-11T06:25:55.430Z,28.70
2019-02-11T06:28:23.718Z,28.85
2019-02-11T06:30:51.968Z,25.10
2019-02-11T06:33:20.253Z,20.05
2019-02-11T06:35:48.555Z,23.10
2019-02-11T06:38:16.807Z,32.95
2019-02-11T06:40:45.137Z,37.10
2019-02-11T06:43:15.038Z,34.05
2019-02-11T06:45:43.293Z,30.32
2019-02-11T06:48:11.550Z,23.67
2019-02-11T06:50:41.436Z,25.40
2019-02-11T06:53:09.685Z,28.95
2019-02-11T06:55:37.931Z,27.10
2019-02-11T06:58:06.246Z,25.20
2019-02-11T07:00:34.519Z,32.00
2019-02-11T07:03:02.787Z,30.82
2019-02-11T07:05:31.051Z,28.80
2019-02-11T07:07:59.330Z,31.55
2019-02-11T07:10:27.586Z,30.50
2019-02-11T07:12:55.825Z,30.92
2019-02-11T07:15:24.091Z,32.42
2019-02-11T07:17:52.371Z,25.27
2019-02-11T07:20:20.643Z,24.87
2019-02-11T07:22:48.926Z,26.75
2019-02-11T07:25:17.182Z,31.80
2019-02-11T07:27:45.481Z,24.15
2019-02-11T07:30:14.226Z,31.42
2019-02-11T07:32:42.506Z,28.67
2019-02-11T07:35:10.783Z,24.27
2019-02-11T07:37:39.027Z,26.17
2019-02-11T07:40:10.045Z,33.10
2019-02-11T07:42:39.930Z,25.92
2019-02-11T07:45:11.881Z,29.63
2019-02-11T07:47:40.180Z,26.55
2019-02-11T07:50:08.433Z,32.13
2019-02-11T07:52:36.716Z,28.77
2019-02-11T07:55:05.838Z,29.42
2019-02-11T07:57:34.102Z,31.68
2019-02-11T08:00:02.364Z,30.65
2019-02-11T08:02:30.631Z,28.80
2019-02-11T08:04:58.878Z,31.82
2019-02-11T08:07:27.183Z,27.80
2019-02-11T08:09:55.454Z,29.45
2019-02-11T08:12:23.728Z,27.90
2019-02-11T08:14:51.968Z,33.42
2019-02-11T08:17:20.280Z,32.90
2019-02-11T08:19:48.513Z,29.87
2019-02-11T08:22:16.774Z,33.67
2019-02-11T08:24:45.070Z,31.27
2019-02-11T08:27:13.834Z,31.42
2019-02-11T08:29:43.299Z,27.32
2019-02-11T08:32:11.551Z,25.60
2019-02-11T08:34:39.810Z,19.35
2019-02-11T08:37:08.061Z,29.05
2019-02-11T08:39:36.329Z,21.05
2019-02-11T08:42:04.580Z,26.07
2019-02-11T08:44:33.671Z,26.00
2019-02-11T08:47:01.998Z,24.72
2019-02-11T08:49:30.271Z,21.12
2019-02-11T08:51:58.576Z,18.45
2019-02-11T08:54:26.812Z,21.97
2019-02-11T08:56:55.094Z,23.38
2019-02-11T08:59:23.425Z,22.98
2019-02-11T09:01:51.715Z,21.62
2019-02-11T09:04:19.998Z,27.48
2019-02-11T09:06:48.296Z,25.05
2019-02-11T09:09:16.572Z,31.52
2019-02-11T09:11:44.831Z,23.15
2019-02-11T09:14:13.101Z,23.73
2019-02-11T09:16:41.371Z,25.65
2019-02-11T09:19:09.702Z,28.02
2019-02-11T09:21:37.964Z,21.17
2019-02-11T09:24:06.224Z,25.35
2019-02-11T09:26:34.515Z,23.92
2019-02-11T09:29:02.838Z,30.27
2019-02-11T09:31:31.126Z,26.52
2019-02-11T09:33:59.373Z,22.48
2019-02-11T09:36:27.692Z,33.08
2019-02-11T09:38:55.973Z,28.90
2019-02-11T09:41:24.240Z,21.97
2019-02-11T09:43:52.500Z,23.40
2019-02-11T09:46:21.361Z,25.85
2019-02-11T09:48:49.634Z,26.12
2019-02-11T09:51:18.179Z,24.43
2019-02-11T09:53:46.455Z,29.77
2019-02-11T09:56:14.792Z,24.67
2019-02-11T09:58:43.045Z,22.05
2019-02-11T10:01:11.313Z,27.73
2019-02-11T10:03:39.565Z,30.15
2019-02-11T10:06:07.844Z,33.45
2019-02-11T10:08:36.228Z,28.70
2019-02-11T10:11:04.504Z,31.82
2019-02-11T10:13:32.756Z,26.62
2019-02-11T10:16:01.007Z,25.10
2019-02-11T10:18:29.265Z,30.02
2019-02-11T10:20:57.683Z,26.42
2019-02-11T10:23:25.953Z,23.60
2019-02-11T10:25:54.234Z,22.73
2019-02-11T10:28:22.513Z,25.32
2019-02-11T10:30:50.797Z,29.98
2019-02-11T10:33:19.053Z,25.15
2019-02-11T10:35:47.391Z,28.67
2019-02-11T10:38:15.653Z,27.13
2019-02-11T10:40:43.887Z,26.75
2019-02-11T10:43:12.163Z,25.52
2019-02-11T10:45:40.422Z,27.95
2019-02-11T10:48:08.694Z,22.58
2019-02-11T10:50:37.013Z,23.25
2019-02-11T10:53:05.273Z,23.15
2019-02-11T10:55:33.569Z,22.30
2019-02-11T10:58:01.818Z,24.82
2019-02-11T11:00:30.179Z,19.50
2019-02-11T11:03:00.130Z,26.20
2019-02-11T11:05:28.405Z,17.65
2019-02-11T11:07:56.660Z,20.08
2019-02-11T11:10:33.996Z,18.48
2019-02-11T11:13:02.234Z,22.67
2019-02-11T11:15:30.507Z,23.32
2019-02-11T11:17:58.752Z,16.50
2019-02-11T11:20:27.435Z,21.60
2019-02-11T11:22:55.765Z,23.27
2019-02-11T11:25:24.014Z,18.73
2019-02-11T11:27:52.294Z,24.57
2019-02-11T11:30:23.071Z,17.87
2019-02-11T11:32:51.313Z,19.32
2019-02-11T11:35:19.648Z,17.70
2019-02-11T11:37:47.899Z,15.05
2019-02-11T11:40:21.188Z,19.65
2019-02-11T11:42:49.433Z,13.70
2019-02-11T11:45:21.039Z,21.62
2019-02-11T11:47:49.280Z,15.93
2019-02-11T11:50:17.932Z,14.98
2019-02-11T11:52:46.194Z,13.20
2019-02-11T11:55:22.509Z,14.38
2019-02-11T11:57:50.765Z,9.38
2019-02-11T12:00:29.986Z,9.30
2019-02-11T12:03:02.697Z,12.23
2019-02-11T12:05:28.319Z,8.90
2019-02-11T12:07:56.568Z,9.83
2019-02-11T12:10:24.854Z,8.83
2019-02-11T12:12:53.121Z,4.50
2019-02-11T12:15:23.433Z,6.35
2019-02-11T12:17:51.770Z,7.70
2019-02-11T12:20:20.036Z,6.78
2019-02-11T12:22:48.364Z,8.03
2019-02-11T12:25:17.977Z,6.08
2019-02-11T12:27:46.377Z,6.30
2019-02-11T12:30:23.107Z,8.45
2019-02-11T12:32:54.307Z,8.90
2019-02-11T12:35:21.343Z,8.53
2019-02-11T12:37:49.636Z,6.97
2019-02-11T12:40:17.891Z,11.12
2019-02-11T12:42:46.168Z,8.40
2019-02-11T12:45:17.215Z,7.60
2019-02-11T12:47:45.560Z,7.70
2019-02-11T12:50:15.643Z,8.28
2019-02-11T12:52:43.881Z,13.48
2019-02-11T12:55:16.776Z,12.55
2019-02-11T12:57:45.061Z,11.75
2019-02-11T13:00:18.688Z,12.13
2019-02-11T13:02:47.093Z,12.53
2019-02-11T13:05:15.410Z,14.10
2019-02-11T13:07:43.774Z,13.95
2019-02-11T13:10:15.289Z,9.63
2019-02-11T13:12:43.622Z,12.82
2019-02-11T13:15:33.491Z,14.28
2019-02-11T13:17:43.614Z,13.72
2019-02-11T13:20:14.403Z,12.40
2019-02-11T13:22:42.623Z,10.68
2019-02-11T13:25:15.824Z,18.73
2019-02-11T13:27:44.062Z,17.75
2019-02-11T13:30:14.788Z,15.60
2019-02-11T13:32:43.053Z,14.85
2019-02-11T13:35:11.326Z,11.45
2019-02-11T13:37:39.611Z,15.65
2019-02-11T13:40:09.722Z,11.45
2019-02-11T13:42:38.042Z,12.37
2019-02-11T13:45:12.056Z,15.55
2019-02-11T13:47:53.887Z,15.60
2019-02-11T13:50:16.076Z,14.90
2019-02-11T13:52:44.424Z,14.73
2019-02-11T13:55:12.751Z,15.38
2019-02-11T13:57:41.017Z,13.55
2019-02-11T14:00:16.355Z,10.43
2019-02-11T14:02:47.117Z,17.77
2019-02-11T14:05:15.791Z,12.80
2019-02-11T14:07:44.049Z,16.30
2019-02-11T14:10:12.590Z,11.63
2019-02-11T14:12:40.945Z,13.70
2019-02-11T14:15:09.191Z,14.70
2019-02-11T14:17:37.488Z,17.05
2019-02-11T14:20:08.934Z,12.28
2019-02-11T14:22:37.209Z,9.80
2019-02-11T14:25:05.839Z,13.60
2019-02-11T14:27:34.120Z,11.48
2019-02-11T14:30:02.471Z,11.28
2019-02-11T14:32:31.635Z,13.38
2019-02-11T14:35:00.005Z,11.05
2019-02-11T14:37:28.275Z,13.48
2019-02-11T14:39:56.524Z,12.90
2019-02-11T14:42:24.777Z,10.58
2019-02-11T14:44:56.009Z,13.35
2019-02-11T14:47:24.294Z,14.40
2019-02-11T14:49:53.899Z,11.90
2019-02-11T14:52:22.476Z,13.35
2019-02-11T14:54:51.196Z,11.85
2019-02-11T14:57:19.485Z,7.97
2019-02-11T14:59:47.734Z,6.97
2019-02-11T15:02:15.982Z,13.35
2019-02-11T15:04:44.257Z,12.28
2019-02-11T15:07:12.518Z,13.98
2019-02-11T15:09:40.784Z,8.80
2019-02-11T15:12:09.031Z,10.50
2019-02-11T15:14:37.318Z,15.30
2019-02-11T15:17:05.647Z,11.73
2019-02-11T15:19:35.552Z,12.70
2019-02-11T15:22:03.807Z,12.13
2019-02-11T15:24:32.074Z,14.23
2019-02-11T15:27:00.328Z,14.35
2019-02-11T15:29:28.638Z,16.55
2019-02-11T15:31:56.891Z,18.25
2019-02-11T15:34:25.151Z,16.87
2019-02-11T15:36:53.431Z,17.70
2019-02-11T15:39:21.703Z,11.12
2019-02-11T15:41:49.967Z,12.63
2019-02-11T15:44:18.225Z,12.58
2019-02-11T15:46:46.482Z,10.30
2019-02-11T15:49:14.782Z,16.23
2019-02-11T15:51:43.027Z,17.50
2019-02-11T15:54:11.313Z,13.85
2019-02-11T15:56:39.559Z,17.10
2019-02-11T15:59:09.211Z,14.43
2019-02-11T16:01:37.664Z,18.37
2019-02-11T16:04:06.836Z,13.30
2019-02-11T16:06:38.071Z,17.45
2019-02-11T16:09:05.556Z,19.80
2019-02-11T16:11:35.728Z,22.90
2019-02-11T16:14:04.240Z,22.10
2019-02-11T16:16:32.516Z,15.98
2019-02-11T16:19:02.429Z,22.60
2019-02-11T16:21:30.714Z,20.10
2019-02-11T16:23:59.024Z,21.68
2019-02-11T16:26:27.305Z,23.05
2019-02-11T16:28:55.536Z,23.02
2019-02-11T16:31:23.814Z,21.48
2019-02-11T16:33:52.296Z,22.27
2019-02-11T16:36:20.617Z,17.98
2019-02-11T16:38:48.894Z,21.40
2019-02-11T16:41:17.179Z,21.50
2019-02-11T16:43:45.466Z,23.65
2019-02-11T16:46:13.734Z,19.73
2019-02-11T16:48:42.044Z,23.80
2019-02-11T16:51:12.839Z,21.12
2019-02-11T16:53:42.743Z,16.27
2019-02-11T16:56:19.835Z,17.30
2019-02-11T16:58:49.775Z,18.80
2019-02-11T17:01:18.060Z,20.80
2019-02-11T17:03:46.839Z,17.75
2019-02-11T17:06:15.116Z,20.75
2019-02-11T17:08:45.458Z,17.90
2019-02-11T17:11:15.363Z,24.25
2019-02-11T17:13:44.676Z,22.60
2019-02-11T17:16:13.434Z,23.75
2019-02-11T17:18:43.322Z,16.80
2019-02-11T17:21:13.267Z,18.42
2019-02-11T17:23:41.551Z,21.97
2019-02-11T17:26:09.852Z,20.10
2019-02-11T17:28:38.094Z,20.62
2019-02-11T17:31:06.371Z,18.27
2019-02-11T17:33:34.675Z,20.20
2019-02-11T17:36:03.071Z,19.77
2019-02-11T17:38:31.368Z,18.77
2019-02-11T17:40:59.626Z,21.70
2019-02-11T17:43:27.906Z,19.57
2019-02-11T17:45:57.047Z,24.05
2019-02-11T17:48:26.972Z,21.40
2019-02-11T17:50:55.247Z,18.00
2019-02-11T17:53:23.887Z,16.52
2019-02-11T17:55:52.156Z,22.35
2019-02-11T17:58:20.419Z,22.62
2019-02-11T18:00:50.347Z,17.77
2019-02-11T18:03:18.596Z,17.48
2019-02-11T18:05:46.984Z,18.50
2019-02-11T18:08:15.330Z,20.82
2019-02-11T18:10:43.587Z,18.17
2019-02-11T18:13:11.856Z,17.35
2019-02-11T18:15:40.133Z,16.90
2019-02-11T18:18:08.398Z,18.32
2019-02-11T18:20:36.660Z,21.50
2019-02-11T18:23:04.905Z,22.15
2019-02-11T18:25:33.179Z,27.50
2019-02-11T18:28:01.432Z,24.43
2019-02-11T18:30:29.705Z,16.77
2019-02-11T18:32:57.975Z,21.62
2019-02-11T18:35:26.239Z,19.17
2019-02-11T18:37:54.529Z,18.80
2019-02-11T18:40:22.797Z,24.43
2019-02-11T18:42:52.760Z,21.85
2019-02-11T18:45:21.069Z,20.88
2019-02-11T18:47:50.617Z,22.58
2019-02-11T18:50:18.981Z,21.50
2019-02-11T18:52:47.246Z,20.97
2019-02-11T18:55:17.556Z,22.40
2019-02-11T18:57:45.838Z,24.30
2019-02-11T19:00:17.733Z,17.20
2019-02-11T19:02:46.028Z,18.45
2019-02-11T19:05:14.624Z,20.45
2019-02-11T19:07:42.917Z,22.82
2019-02-11T19:10:13.107Z,23.15
2019-02-11T19:12:41.401Z,22.45
2019-02-11T19:15:12.106Z,16.70
2019-02-11T19:17:40.412Z,21.20
2019-02-11T19:20:16.482Z,22.90
2019-02-11T19:22:44.775Z,21.37
2019-02-11T19:25:13.096Z,21.82
2019-02-11T19:27:41.434Z,17.48
2019-02-11T19:30:18.450Z,20.57
2019-02-11T19:32:46.719Z,22.00
2019-02-11T19:35:15.014Z,23.42
2019-02-11T19:37:43.369Z,19.45
2019-02-11T19:40:14.129Z,23.55
2019-02-11T19:42:42.423Z,20.25
2019-02-11T19:45:13.240Z,21.65
2019-02-11T19:47:41.504Z,21.70
2019-02-11T19:50:12.500Z,17.32
2019-02-11T19:52:40.842Z,17.92
2019-02-11T19:55:11.002Z,18.07
2019-02-11T19:57:39.199Z,15.28
2019-02-11T20:00:24.669Z,24.67
2019-02-11T20:02:54.574Z,18.05
2019-02-11T20:05:22.880Z,17.60
2019-02-11T20:07:51.209Z,18.40
2019-02-11T20:10:25.618Z,24.95
2019-02-11T20:12:53.967Z,22.55
2019-02-11T20:15:27.587Z,18.73
2019-02-11T20:17:55.860Z,15.03
2019-02-11T20:20:27.197Z,21.15
2019-02-11T20:22:55.534Z,16.75
2019-02-11T20:25:32.688Z,19.35
2019-02-11T20:27:58.126Z,15.38
2019-02-11T20:30:28.341Z,10.65
2019-02-11T20:32:56.716Z,15.48
2019-02-11T20:35:25.050Z,22.55
2019-02-11T20:37:53.400Z,16.42
2019-02-11T20:40:29.293Z,18.62
2019-02-11T20:42:57.603Z,19.35
2019-02-11T20:45:28.207Z,16.85
2019-02-11T20:47:56.464Z,21.37
2019-02-11T20:50:24.752Z,15.05
2019-02-11T20:52:53.021Z,17.82
2019-02-11T20:55:21.310Z,19.32
2019-02-11T20:57:52.447Z,17.92
2019-02-11T21:00:24.080Z,15.63
2019-02-11T21:02:52.372Z,24.77
2019-02-11T21:05:20.826Z,16.12
2019-02-11T21:07:49.099Z,20.82
2019-02-11T21:10:19.119Z,20.95
2019-02-11T21:12:47.401Z,16.02
2019-02-11T21:15:16.519Z,17.20
2019-02-11T21:17:44.832Z,18.77
2019-02-11T21:20:18.651Z,17.55
2019-02-11T21:22:47.245Z,16.95
2019-02-11T21:25:15.505Z,20.77
2019-02-11T21:27:43.808Z,20.75
2019-02-11T21:30:13.621Z,20.08
2019-02-11T21:32:41.961Z,18.23
2019-02-11T21:35:11.481Z,23.80
2019-02-11T21:37:40.044Z,15.15
2019-02-11T21:40:08.639Z,20.57
2019-02-11T21:42:36.912Z,17.30
2019-02-11T21:45:08.020Z,16.77
2019-02-11T21:47:36.303Z,18.25
2019-02-11T21:50:26.693Z,19.30
2019-02-11T21:52:52.932Z,21.50
2019-02-11T21:55:23.227Z,14.25
2019-02-11T21:57:51.650Z,18.95
2019-02-11T22:00:21.944Z,16.20
2019-02-11T22:02:50.285Z,14.15
2019-02-11T22:05:18.554Z,22.73
2019-02-11T22:07:46.870Z,19.48
2019-02-11T22:10:19.850Z,13.90
2019-02-11T22:12:48.120Z,24.75
2019-02-11T22:15:16.405Z,19.20
2019-02-11T22:17:44.692Z,18.67
2019-02-11T22:20:20.696Z,19.23
2019-02-11T22:22:48.967Z,16.45
2019-02-11T22:25:17.218Z,24.35
2019-02-11T22:27:45.501Z,11.43
2019-02-11T22:30:41.292Z,18.00
2019-02-11T22:33:09.590Z,12.45
2019-02-11T22:35:37.838Z,15.55
2019-02-11T22:38:06.111Z,14.78
2019-02-11T22:40:34.360Z,14.10
2019-02-11T22:43:02.676Z,13.10
2019-02-11T22:45:30.948Z,20.25
2019-02-11T22:47:59.284Z,17.55
2019-02-11T22:50:27.541Z,20.37
2019-02-11T22:52:55.819Z,14.90
2019-02-11T22:55:24.082Z,18.40
2019-02-11T22:57:52.393Z,20.10
2019-02-11T23:00:25.206Z,19.27
2019-02-11T23:02:53.480Z,23.50
2019-02-11T23:05:21.762Z,19.25
2019-02-11T23:07:50.017Z,13.80
2019-02-11T23:10:18.286Z,17.20
2019-02-11T23:12:46.561Z,14.07
2019-02-11T23:15:14.830Z,12.07
2019-02-11T23:17:43.086Z,15.00
2019-02-11T23:20:11.383Z,16.52
2019-02-11T23:22:39.662Z,13.05
2019-02-11T23:25:07.958Z,11.18
2019-02-11T23:27:36.220Z,19.35
2019-02-11T23:30:13.297Z,16.02
2019-02-11T23:32:36.870Z,16.30
2019-02-11T23:35:05.696Z,14.15
2019-02-11T23:37:33.955Z,12.98
2019-02-11T23:40:02.243Z,21.65
2019-02-11T23:42:31.485Z,14.55
2019-02-11T23:44:59.729Z,13.88
2019-02-11T23:47:27.975Z,11.65
2019-02-11T23:49:56.381Z,10.03
2019-02-11T23:52:24.635Z,12.47
2019-02-11T23:54:52.925Z,10.48
2019-02-11T23:57:21.222Z,8.55
2019-02-11T23:59:49.522Z,16.25
